createdAt,value
2018-02-07T00:01:12.964Z,80.77
2018-02-07T00:03:42.839Z,80.70
2018-02-07T00:06:12.700Z,85.43
2018-02-07T00:08:42.455Z,81.53
2018-02-07T00:11:12.175Z,73.80
2018-02-07T00:13:41.951Z,72.53
2018-02-07T00:16:11.751Z,75.63
2018-02-07T00:18:41.654Z,83.90
2018-02-07T00:21:11.468Z,83.70
2018-02-07T00:23:41.221Z,87.73
2018-02-07T00:26:11.302Z,83.97
2018-02-07T00:28:41.060Z,91.03
2018-02-07T00:31:10.769Z,77.97
2018-02-07T00:33:40.556Z,79.73
2018-02-07T00:36:10.245Z,89.20
2018-02-07T00:38:40.006Z,82.27
2018-02-07T00:41:09.765Z,72.37
2018-02-07T00:43:39.567Z,77.07
2018-02-07T00:46:09.353Z,74.40
2018-02-07T00:48:39.100Z,85.80
2018-02-07T00:51:08.800Z,80.33
2018-02-07T00:53:38.573Z,95.60
2018-02-07T00:56:08.344Z,97.97
2018-02-07T00:58:38.127Z,128.37
2018-02-07T01:01:07.918Z,126.50
2018-02-07T01:03:37.689Z,105.27
2018-02-07T01:06:07.499Z,114.60
2018-02-07T01:08:37.238Z,96.57
2018-02-07T01:11:06.931Z,109.00
2018-02-07T01:13:36.706Z,97.80
2018-02-07T01:16:06.470Z,99.40
2018-02-07T01:18:36.272Z,100.80
2018-02-07T01:21:06.100Z,95.00
2018-02-07T01:23:35.884Z,101.03
2018-02-07T01:26:05.672Z,97.80
2018-02-07T01:28:35.461Z,107.93
2018-02-07T01:31:05.197Z,96.23
2018-02-07T01:33:34.928Z,111.00
2018-02-07T01:36:04.666Z,106.57
2018-02-07T01:38:34.468Z,115.90
2018-02-07T01:41:04.245Z,115.93
2018-02-07T01:43:34.100Z,120.20
2018-02-07T01:46:03.875Z,107.37
2018-02-07T01:48:33.642Z,105.47
2018-02-07T01:51:03.393Z,107.13
2018-02-07T01:53:33.175Z,109.47
2018-02-07T01:56:03.033Z,119.67
2018-02-07T01:58:32.808Z,105.40
2018-02-07T02:01:02.560Z,119.87
2018-02-07T02:03:32.297Z,119.43
2018-02-07T02:06:02.018Z,129.63
2018-02-07T02:08:31.779Z,111.47
2018-02-07T02:11:01.490Z,106.03
2018-02-07T02:13:31.281Z,105.87
2018-02-07T02:16:01.040Z,111.57
2018-02-07T02:18:30.802Z,103.33
2018-02-07T02:21:00.608Z,105.30
2018-02-07T02:23:30.391Z,98.60
2018-02-07T02:26:00.225Z,99.00
2018-02-07T02:28:29.969Z,103.50
2018-02-07T02:30:59.698Z,92.73
2018-02-07T02:33:29.504Z,96.00
2018-02-07T02:36:11.120Z,91.80
2018-02-07T02:38:40.877Z,97.40
2018-02-07T02:41:10.673Z,87.13
2018-02-07T02:43:40.442Z,95.27
2018-02-07T02:46:10.200Z,93.83
2018-02-07T02:48:39.986Z,87.73
2018-02-07T02:51:09.715Z,93.30
2018-02-07T02:53:39.517Z,89.73
2018-02-07T02:56:09.302Z,84.37
2018-02-07T02:58:39.126Z,82.30
2018-02-07T03:01:08.872Z,83.87
2018-02-07T03:03:38.690Z,78.30
2018-02-07T03:06:08.397Z,86.73
2018-02-07T03:08:38.204Z,83.13
2018-02-07T03:11:07.891Z,83.57
2018-02-07T03:13:37.681Z,78.63
2018-02-07T03:16:07.453Z,81.93
2018-02-07T03:18:37.198Z,81.17
2018-02-07T03:21:06.985Z,79.10
2018-02-07T03:23:36.767Z,77.20
2018-02-07T03:26:06.574Z,85.00
2018-02-07T03:28:36.357Z,78.03
2018-02-07T03:31:06.061Z,79.03
2018-02-07T03:33:35.827Z,81.50
2018-02-07T03:36:05.551Z,77.60
2018-02-07T03:38:35.347Z,81.63
2018-02-07T03:41:05.094Z,80.47
2018-02-07T03:43:34.898Z,82.27
2018-02-07T03:46:04.623Z,84.43
2018-02-07T03:48:34.368Z,83.70
2018-02-07T03:51:04.081Z,86.87
2018-02-07T03:53:33.900Z,85.63
2018-02-07T03:56:03.642Z,95.70
2018-02-07T03:58:33.449Z,99.73
2018-02-07T04:01:03.196Z,92.53
2018-02-07T04:03:32.949Z,102.80
2018-02-07T04:06:02.694Z,100.03
2018-02-07T04:08:32.445Z,95.27
2018-02-07T04:11:02.136Z,96.33
2018-02-07T04:13:32.030Z,89.77
2018-02-07T04:16:01.819Z,87.47
2018-02-07T04:18:31.600Z,88.40
2018-02-07T04:21:01.388Z,92.80
2018-02-07T04:23:31.145Z,90.40
2018-02-07T04:26:00.912Z,93.17
2018-02-07T04:28:30.692Z,93.70
2018-02-07T04:31:00.416Z,85.27
2018-02-07T04:33:30.165Z,88.00
2018-02-07T04:35:59.845Z,87.67
2018-02-07T04:38:29.592Z,87.17
2018-02-07T04:40:59.288Z,85.27
2018-02-07T04:43:29.090Z,82.93
2018-02-07T04:45:58.852Z,88.27
2018-02-07T04:48:28.642Z,82.20
2018-02-07T04:50:58.348Z,87.30
2018-02-07T04:53:28.138Z,87.37
2018-02-07T04:55:57.940Z,85.90
2018-02-07T04:58:27.686Z,83.77
2018-02-07T05:00:57.452Z,86.90
2018-02-07T05:03:27.168Z,83.10
2018-02-07T05:05:56.977Z,89.60
2018-02-07T05:08:26.710Z,85.57
2018-02-07T05:10:56.415Z,86.10
2018-02-07T05:13:26.151Z,91.77
2018-02-07T05:15:55.887Z,91.00
2018-02-07T05:18:25.718Z,81.63
2018-02-07T05:20:55.499Z,84.80
2018-02-07T05:23:25.229Z,86.07
2018-02-07T05:25:54.967Z,85.47
2018-02-07T05:28:24.775Z,86.97
2018-02-07T05:30:54.494Z,83.50
2018-02-07T05:33:24.290Z,83.07
2018-02-07T05:35:53.996Z,81.47
2018-02-07T05:38:23.702Z,87.00
2018-02-07T05:40:53.506Z,79.13
2018-02-07T05:43:23.293Z,83.47
2018-02-07T05:45:53.094Z,85.50
2018-02-07T05:48:22.913Z,81.80
2018-02-07T05:50:52.612Z,85.50
2018-02-07T05:53:22.407Z,90.60
2018-02-07T05:55:52.212Z,81.60
2018-02-07T05:58:21.984Z,89.47
2018-02-07T06:00:51.782Z,81.00
2018-02-07T06:03:21.548Z,83.33
2018-02-07T06:05:51.238Z,80.00
2018-02-07T06:08:20.987Z,80.50
2018-02-07T06:10:50.745Z,81.07
2018-02-07T06:13:20.490Z,71.93
2018-02-07T06:15:50.300Z,76.40
2018-02-07T06:18:20.147Z,73.13
2018-02-07T06:20:49.972Z,75.13
2018-02-07T06:23:19.757Z,70.20
2018-02-07T06:25:49.565Z,76.57
2018-02-07T06:28:19.365Z,78.43
2018-02-07T06:30:49.103Z,71.10
2018-02-07T06:33:18.887Z,78.93
2018-02-07T06:35:48.667Z,73.83
2018-02-07T06:38:18.438Z,71.23
2018-02-07T06:40:48.211Z,67.03
2018-02-07T06:43:17.992Z,70.00
2018-02-07T06:45:47.793Z,67.37
2018-02-07T06:48:17.554Z,73.30
2018-02-07T06:50:47.296Z,71.03
2018-02-07T06:53:17.100Z,66.87
2018-02-07T06:55:46.879Z,65.50
2018-02-07T06:58:16.647Z,75.83
2018-02-07T07:00:46.381Z,75.50
2018-02-07T07:03:16.120Z,74.33
2018-02-07T07:05:45.830Z,79.07
2018-02-07T07:08:15.678Z,75.27
2018-02-07T07:10:45.402Z,83.67
2018-02-07T07:13:15.227Z,80.43
2018-02-07T07:15:45.050Z,85.90
2018-02-07T07:18:14.829Z,84.03
2018-02-07T07:20:44.671Z,82.57
2018-02-07T07:23:14.447Z,90.67
2018-02-07T07:25:44.303Z,92.20
2018-02-07T07:28:14.092Z,81.10
2018-02-07T07:30:43.816Z,83.47
2018-02-07T07:33:13.697Z,89.80
2018-02-07T07:35:43.463Z,94.87
2018-02-07T07:38:13.372Z,86.67
2018-02-07T07:40:43.185Z,94.87
2018-02-07T07:43:13.018Z,87.00
2018-02-07T07:45:42.946Z,85.80
2018-02-07T07:48:12.799Z,90.90
2018-02-07T07:50:42.520Z,85.77
2018-02-07T07:53:12.316Z,85.37
2018-02-07T07:55:42.088Z,78.20
2018-02-07T07:58:11.820Z,86.50
2018-02-07T08:00:41.558Z,79.77
2018-02-07T08:03:11.427Z,80.00
2018-02-07T08:05:41.133Z,75.23
2018-02-07T08:08:10.983Z,75.20
2018-02-07T08:10:40.685Z,73.23
2018-02-07T08:13:10.492Z,69.80
2018-02-07T08:15:40.280Z,74.10
2018-02-07T08:18:10.769Z,75.10
2018-02-07T08:20:40.585Z,71.17
2018-02-07T08:23:10.436Z,68.00
2018-02-07T08:25:40.251Z,65.20
2018-02-07T08:28:10.044Z,63.70
2018-02-07T08:30:39.793Z,68.23
2018-02-07T08:33:09.624Z,65.93
2018-02-07T08:35:39.355Z,61.50
2018-02-07T08:38:09.142Z,62.80
2018-02-07T08:40:38.886Z,63.27
2018-02-07T08:43:08.677Z,66.37
2018-02-07T08:45:38.518Z,65.77
2018-02-07T08:48:08.336Z,67.20
2018-02-07T08:50:38.038Z,69.33
2018-02-07T08:53:07.889Z,66.67
2018-02-07T08:55:37.648Z,67.50
2018-02-07T08:58:07.430Z,64.97
2018-02-07T09:00:37.226Z,69.00
2018-02-07T09:03:07.034Z,65.43
2018-02-07T09:05:36.838Z,68.53
2018-02-07T09:08:06.660Z,72.03
2018-02-07T09:10:36.451Z,65.37
2018-02-07T09:13:06.181Z,68.10
2018-02-07T09:15:35.879Z,61.67
2018-02-07T09:18:05.649Z,65.03
2018-02-07T09:20:35.362Z,60.73
2018-02-07T09:23:05.153Z,65.00
2018-02-07T09:25:34.993Z,70.70
2018-02-07T09:28:04.798Z,64.23
2018-02-07T09:30:34.543Z,73.73
2018-02-07T09:33:04.266Z,64.70
2018-02-07T09:35:34.036Z,65.50
2018-02-07T09:38:03.842Z,67.70
2018-02-07T09:40:33.608Z,69.87
2018-02-07T09:43:03.373Z,66.60
2018-02-07T09:45:33.211Z,73.30
2018-02-07T09:48:03.145Z,68.03
2018-02-07T09:50:32.932Z,86.07
2018-02-07T09:53:02.666Z,87.73
2018-02-07T09:55:32.477Z,91.47
2018-02-07T09:58:02.277Z,88.10
2018-02-07T10:00:32.123Z,86.17
2018-02-07T10:03:01.956Z,87.10
2018-02-07T10:05:31.924Z,87.23
2018-02-07T10:08:01.750Z,81.67
2018-02-07T10:10:31.474Z,85.07
2018-02-07T10:13:01.200Z,90.40
2018-02-07T10:15:30.979Z,87.03
2018-02-07T10:18:00.764Z,86.47
2018-02-07T10:20:30.542Z,80.20
2018-02-07T10:23:00.389Z,82.27
2018-02-07T10:25:30.121Z,89.30
2018-02-07T10:27:59.963Z,92.33
2018-02-07T10:30:29.675Z,90.97
2018-02-07T10:32:59.409Z,76.67
2018-02-07T10:35:29.233Z,76.23
2018-02-07T10:37:59.046Z,74.03
2018-02-07T10:40:28.813Z,80.57
2018-02-07T10:42:58.685Z,72.20
2018-02-07T10:45:28.619Z,68.73
2018-02-07T10:47:58.472Z,75.50
2018-02-07T10:50:28.219Z,69.17
2018-02-07T10:52:57.968Z,71.60
2018-02-07T10:55:27.840Z,72.50
2018-02-07T10:57:57.572Z,66.57
2018-02-07T11:00:27.402Z,62.70
2018-02-07T11:02:57.120Z,66.93
2018-02-07T11:05:26.864Z,68.60
2018-02-07T11:07:56.711Z,64.47
2018-02-07T11:10:26.448Z,70.23
2018-02-07T11:12:56.163Z,66.57
2018-02-07T11:15:25.914Z,72.97
2018-02-07T11:17:55.664Z,72.03
2018-02-07T11:20:25.398Z,75.10
2018-02-07T11:22:55.150Z,83.17
2018-02-07T11:25:24.902Z,73.07
2018-02-07T11:27:54.677Z,87.57
2018-02-07T11:30:24.412Z,81.03
2018-02-07T11:32:54.145Z,79.90
2018-02-07T11:35:23.934Z,82.13
2018-02-07T11:37:53.694Z,89.23
2018-02-07T11:40:23.399Z,80.33
2018-02-07T11:42:53.163Z,81.20
2018-02-07T11:45:22.913Z,87.10
2018-02-07T11:47:52.663Z,83.93
2018-02-07T11:50:22.431Z,92.77
2018-02-07T11:52:52.153Z,92.27
2018-02-07T11:55:21.955Z,94.43
2018-02-07T11:57:51.857Z,100.30
2018-02-07T12:00:21.650Z,88.90
2018-02-07T12:02:51.485Z,90.40
2018-02-07T12:05:21.359Z,97.10
2018-02-07T12:07:51.122Z,95.87
2018-02-07T12:10:20.854Z,91.27
2018-02-07T12:12:50.535Z,92.07
2018-02-07T12:15:20.324Z,84.37
2018-02-07T12:17:50.109Z,91.53
2018-02-07T12:20:19.876Z,88.83
2018-02-07T12:22:49.657Z,98.47
2018-02-07T12:25:19.469Z,99.60
2018-02-07T12:27:49.235Z,98.97
2018-02-07T12:30:18.930Z,102.23
2018-02-07T12:32:48.672Z,84.83
2018-02-07T12:35:18.435Z,88.40
2018-02-07T12:37:50.694Z,89.67
2018-02-07T12:40:20.468Z,96.80
2018-02-07T12:42:50.880Z,92.13
2018-02-07T12:45:20.693Z,81.30
2018-02-07T12:47:50.514Z,81.97
2018-02-07T12:50:20.238Z,90.70
2018-02-07T12:52:50.035Z,81.60
2018-02-07T12:55:19.831Z,78.00
2018-02-07T12:57:49.633Z,83.63
2018-02-07T13:00:19.432Z,78.63
2018-02-07T13:02:49.200Z,76.27
2018-02-07T13:05:18.990Z,76.27
2018-02-07T13:07:48.777Z,77.87
2018-02-07T13:10:18.487Z,85.57
2018-02-07T13:12:48.190Z,84.80
2018-02-07T13:15:17.954Z,86.00
2018-02-07T13:17:47.830Z,79.47
2018-02-07T13:20:17.657Z,84.53
2018-02-07T13:22:47.488Z,82.70
2018-02-07T13:25:17.264Z,91.90
2018-02-07T13:27:47.097Z,93.67
2018-02-07T13:30:16.835Z,104.90
2018-02-07T13:32:46.534Z,98.87
2018-02-07T13:35:16.334Z,93.10
2018-02-07T13:37:46.057Z,88.20
2018-02-07T13:40:15.900Z,93.27
2018-02-07T13:42:45.702Z,88.03
2018-02-07T13:45:15.642Z,83.03
2018-02-07T13:47:45.430Z,84.20
2018-02-07T13:50:15.205Z,84.53
2018-02-07T13:52:44.960Z,92.57
2018-02-07T13:55:14.742Z,81.53
2018-02-07T13:57:44.497Z,93.47
2018-02-07T14:00:14.290Z,85.13
2018-02-07T14:02:44.090Z,91.07
2018-02-07T14:05:13.889Z,96.30
2018-02-07T14:07:43.591Z,90.53
2018-02-07T14:10:13.306Z,91.10
2018-02-07T14:12:43.020Z,97.10
2018-02-07T14:15:12.776Z,90.23
2018-02-07T14:17:42.565Z,88.27
2018-02-07T14:20:17.513Z,81.33
2018-02-07T14:22:47.390Z,85.47
2018-02-07T14:25:17.241Z,85.97
2018-02-07T14:27:47.093Z,83.90
2018-02-07T14:30:16.816Z,97.47
2018-02-07T14:32:46.538Z,93.30
2018-02-07T14:35:16.271Z,103.27
2018-02-07T14:37:46.033Z,103.97
2018-02-07T14:40:15.828Z,100.57
2018-02-07T14:42:45.621Z,95.10
2018-02-07T14:45:15.472Z,93.67
2018-02-07T14:47:45.207Z,90.53
2018-02-07T14:50:14.938Z,87.10
2018-02-07T14:52:44.690Z,90.13
2018-02-07T14:55:14.525Z,90.83
2018-02-07T14:57:44.352Z,112.53
2018-02-07T15:00:14.144Z,109.40
2018-02-07T15:02:43.936Z,109.17
2018-02-07T15:05:13.820Z,113.97
2018-02-07T15:07:43.528Z,112.40
2018-02-07T15:10:13.295Z,119.00
2018-02-07T15:12:43.004Z,127.57
2018-02-07T15:15:12.823Z,139.20
2018-02-07T15:17:42.604Z,125.33
2018-02-07T15:20:12.310Z,123.63
2018-02-07T15:22:42.061Z,121.10
2018-02-07T15:25:11.860Z,121.70
2018-02-07T15:27:41.668Z,109.70
2018-02-07T15:30:11.375Z,110.13
2018-02-07T15:32:41.099Z,108.00
2018-02-07T15:35:10.862Z,103.47
2018-02-07T15:37:40.577Z,100.70
2018-02-07T15:40:10.384Z,144.60
2018-02-07T15:42:40.273Z,130.87
2018-02-07T15:45:10.046Z,127.10
2018-02-07T15:47:39.830Z,121.47
2018-02-07T15:50:09.531Z,114.03
2018-02-07T15:52:39.249Z,111.20
2018-02-07T15:55:08.943Z,103.93
2018-02-07T15:57:38.702Z,106.70
2018-02-07T16:00:08.521Z,112.03
2018-02-07T16:02:38.274Z,111.50
2018-02-07T16:05:08.126Z,110.77
2018-02-07T16:07:37.839Z,104.80
2018-02-07T16:10:07.553Z,108.73
2018-02-07T16:12:37.266Z,108.27
2018-02-07T16:15:07.015Z,111.13
2018-02-07T16:17:36.810Z,106.40
2018-02-07T16:20:07.200Z,105.27
2018-02-07T16:22:37.457Z,106.63
2018-02-07T16:25:07.856Z,107.10
2018-02-07T16:27:37.717Z,107.77
2018-02-07T16:30:08.068Z,108.00
2018-02-07T16:32:37.972Z,124.13
2018-02-07T16:35:07.857Z,117.13
2018-02-07T16:37:37.740Z,122.60
2018-02-07T16:40:07.500Z,122.07
2018-02-07T16:42:37.303Z,128.77
2018-02-07T16:45:07.071Z,137.23
2018-02-07T16:47:36.815Z,139.93
2018-02-07T16:50:08.297Z,133.07
2018-02-07T16:52:37.998Z,118.77
2018-02-07T16:55:07.762Z,140.23
2018-02-07T16:57:37.531Z,153.97
2018-02-07T17:00:07.289Z,158.73
2018-02-07T17:02:37.050Z,154.43
2018-02-07T17:05:06.813Z,148.20
2018-02-07T17:07:42.739Z,135.93
2018-02-07T17:10:13.551Z,151.97
2018-02-07T17:12:44.509Z,147.57
2018-02-07T17:15:14.605Z,140.67
2018-02-07T17:17:44.746Z,132.57
2018-02-07T17:20:30.376Z,139.13
2018-02-07T17:23:04.135Z,139.57
2018-02-07T17:25:33.868Z,130.40
2018-02-07T17:28:03.614Z,133.23
2018-02-07T17:30:33.320Z,126.20
2018-02-07T17:33:03.072Z,126.23
2018-02-07T17:35:32.818Z,116.40
2018-02-07T17:38:02.508Z,116.00
2018-02-07T17:40:32.245Z,122.17
2018-02-07T17:43:01.969Z,127.13
2018-02-07T17:45:31.733Z,130.03
2018-02-07T17:48:01.478Z,140.93
2018-02-07T17:50:31.270Z,124.80
2018-02-07T17:53:01.060Z,130.13
2018-02-07T17:55:30.894Z,146.33
2018-02-07T17:58:00.697Z,137.47
2018-02-07T18:00:30.409Z,132.53
2018-02-07T18:03:00.155Z,151.17
2018-02-07T18:05:29.987Z,146.03
2018-02-07T18:08:00.480Z,154.13
2018-02-07T18:10:30.190Z,148.13
2018-02-07T18:13:00.768Z,157.57
2018-02-07T18:15:30.543Z,143.50
2018-02-07T18:18:00.252Z,158.57
2018-02-07T18:20:29.975Z,152.03
2018-02-07T18:22:59.722Z,144.90
2018-02-07T18:25:29.465Z,131.47
2018-02-07T18:27:59.201Z,128.43
2018-02-07T18:30:29.027Z,119.07
2018-02-07T18:32:58.770Z,120.17
2018-02-07T18:35:28.519Z,130.10
2018-02-07T18:37:58.209Z,133.20
2018-02-07T18:40:27.954Z,139.27
2018-02-07T18:42:57.777Z,145.03
2018-02-07T18:45:27.477Z,153.20
2018-02-07T18:47:57.220Z,145.90
2018-02-07T18:50:26.998Z,154.27
2018-02-07T18:52:56.715Z,159.97
2018-02-07T18:55:26.480Z,160.90
2018-02-07T18:57:56.185Z,175.13
2018-02-07T19:00:25.956Z,205.07
2018-02-07T19:02:55.747Z,198.33
2018-02-07T19:05:25.524Z,188.40
2018-02-07T19:07:55.244Z,192.63
2018-02-07T19:10:25.002Z,175.00
2018-02-07T19:12:54.704Z,188.50
2018-02-07T19:15:24.454Z,191.77
2018-02-07T19:17:54.170Z,189.47
2018-02-07T19:20:23.917Z,204.80
2018-02-07T19:22:53.662Z,190.77
2018-02-07T19:25:23.490Z,197.53
2018-02-07T19:27:53.291Z,190.20
2018-02-07T19:30:23.068Z,203.23
2018-02-07T19:32:52.901Z,205.03
2018-02-07T19:35:22.652Z,219.17
2018-02-07T19:37:52.469Z,205.10
2018-02-07T19:40:22.298Z,203.50
2018-02-07T19:42:52.046Z,220.73
2018-02-07T19:45:21.890Z,217.40
2018-02-07T19:47:51.673Z,222.00
2018-02-07T19:50:21.410Z,229.90
2018-02-07T19:52:51.151Z,217.87
2018-02-07T19:55:21.066Z,218.80
2018-02-07T19:57:50.866Z,227.43
2018-02-07T20:00:20.689Z,222.50
2018-02-07T20:02:51.235Z,214.30
2018-02-07T20:05:20.995Z,223.60
2018-02-07T20:07:50.777Z,209.03
2018-02-07T20:10:20.608Z,216.40
2018-02-07T20:12:50.376Z,235.47
2018-02-07T20:15:20.680Z,202.80
2018-02-07T20:17:52.749Z,199.33
2018-02-07T20:20:23.985Z,219.67
2018-02-07T20:22:54.724Z,223.70
2018-02-07T20:25:25.429Z,236.93
2018-02-07T20:27:55.614Z,237.97
2018-02-07T20:30:25.764Z,236.87
2018-02-07T20:32:56.580Z,236.93
2018-02-07T20:35:27.769Z,248.40
2018-02-07T20:37:57.860Z,237.37
2018-02-07T20:40:27.656Z,224.20
2018-02-07T20:42:57.752Z,238.13
2018-02-07T20:45:28.322Z,220.30
2018-02-07T20:48:00.440Z,201.70
2018-02-07T20:50:33.063Z,211.80
2018-02-07T20:53:05.241Z,221.77
2018-02-07T20:55:36.421Z,221.03
2018-02-07T20:58:09.568Z,232.37
2018-02-07T21:00:39.366Z,239.77
2018-02-07T21:03:09.607Z,242.03
2018-02-07T21:05:40.503Z,234.10
2018-02-07T21:08:10.212Z,249.50
2018-02-07T21:10:40.421Z,220.47
2018-02-07T21:13:10.650Z,214.27
2018-02-07T21:15:40.642Z,201.03
2018-02-07T21:18:10.439Z,208.63
2018-02-07T21:20:40.357Z,223.60
2018-02-07T21:23:10.220Z,218.27
2018-02-07T21:25:40.039Z,211.67
2018-02-07T21:28:09.762Z,218.37
2018-02-07T21:30:40.076Z,227.17
2018-02-07T21:33:10.306Z,209.03
2018-02-07T21:35:40.058Z,209.27
2018-02-07T21:38:09.836Z,234.63
2018-02-07T21:40:40.645Z,217.27
2018-02-07T21:43:10.351Z,208.40
2018-02-07T21:45:40.195Z,227.50
2018-02-07T21:48:09.915Z,232.67
2018-02-07T21:50:40.626Z,224.03
2018-02-07T21:53:10.792Z,214.10
2018-02-07T21:55:41.291Z,206.57
2018-02-07T21:58:11.492Z,208.40
2018-02-07T22:00:41.787Z,194.87
2018-02-07T22:03:11.858Z,212.00
2018-02-07T22:05:43.106Z,208.40
2018-02-07T22:08:13.398Z,199.70
2018-02-07T22:10:43.892Z,181.83
2018-02-07T22:13:14.157Z,167.67
2018-02-07T22:15:44.232Z,192.93
2018-02-07T22:18:14.426Z,190.10
2018-02-07T22:20:44.595Z,174.13
2018-02-07T22:23:14.950Z,183.07
2018-02-07T22:25:45.383Z,188.13
2018-02-07T22:28:16.161Z,197.87
2018-02-07T22:30:46.892Z,209.17
2018-02-07T22:33:17.268Z,211.40
2018-02-07T22:35:47.422Z,225.90
2018-02-07T22:38:17.178Z,245.20
2018-02-07T22:40:47.798Z,239.53
2018-02-07T22:43:18.543Z,230.23
2018-02-07T22:45:48.631Z,205.93
2018-02-07T22:48:18.971Z,215.67
2018-02-07T22:50:48.906Z,208.20
2018-02-07T22:53:19.223Z,198.83
2018-02-07T22:55:49.624Z,214.67
2018-02-07T22:58:19.856Z,187.20
2018-02-07T23:00:50.100Z,195.13
2018-02-07T23:03:20.867Z,186.47
2018-02-07T23:05:51.097Z,202.73
2018-02-07T23:08:21.669Z,222.70
2018-02-07T23:10:52.129Z,221.47
2018-02-07T23:13:22.891Z,210.93
2018-02-07T23:15:53.364Z,223.93
2018-02-07T23:18:23.404Z,186.80
2018-02-07T23:20:53.645Z,177.43
2018-02-07T23:23:23.406Z,165.93
2018-02-07T23:25:53.479Z,169.57
2018-02-07T23:28:23.899Z,166.23
2018-02-07T23:30:54.041Z,168.90
2018-02-07T23:33:24.152Z,179.87
2018-02-07T23:35:54.216Z,181.63
2018-02-07T23:38:24.699Z,171.60
2018-02-07T23:40:55.178Z,190.10
2018-02-07T23:43:25.017Z,189.77
2018-02-07T23:45:55.162Z,178.00
2018-02-07T23:48:25.451Z,174.17
2018-02-07T23:50:56.044Z,182.47
2018-02-07T23:53:26.366Z,186.07
2018-02-07T23:55:56.706Z,186.33
2018-02-07T23:58:27.387Z,183.87
